createdAt,value
2023-05-09T00:02:17.256Z,31.52
2023-05-09T00:04:44.137Z,31.52
2023-05-09T00:07:11.054Z,31.13
2023-05-09T00:09:37.837Z,30.70
2023-05-09T00:12:05.026Z,29.73
2023-05-09T00:14:33.539Z,30.30
2023-05-09T00:17:00.766Z,31.77
2023-05-09T00:19:27.539Z,30.42
2023-05-09T00:21:54.364Z,31.55
2023-05-09T00:24:21.062Z,30.05
2023-05-09T00:26:47.743Z,30.60
2023-05-09T00:29:14.492Z,32.38
2023-05-09T00:31:41.290Z,29.83
2023-05-09T00:34:07.998Z,30.35
2023-05-09T00:36:34.689Z,30.88
2023-05-09T00:39:01.495Z,29.67
2023-05-09T00:41:28.442Z,29.40
2023-05-09T00:43:55.225Z,30.20
2023-05-09T00:46:22.464Z,29.88
2023-05-09T00:48:49.357Z,28.35
2023-05-09T00:51:17.001Z,28.80
2023-05-09T00:53:44.910Z,28.20
2023-05-09T00:56:12.264Z,28.08
2023-05-09T00:58:39.057Z,27.55
2023-05-09T01:01:05.875Z,27.98
2023-05-09T01:03:33.152Z,27.25
2023-05-09T01:06:13.057Z,27.23
2023-05-09T01:08:52.203Z,25.05
2023-05-09T01:11:37.852Z,25.40
2023-05-09T01:14:22.631Z,25.63
2023-05-09T01:17:09.555Z,24.65
2023-05-09T01:19:58.705Z,25.38
2023-05-09T01:22:34.905Z,26.85
2023-05-09T01:25:07.657Z,25.40
2023-05-09T01:28:05.976Z,25.95
2023-05-09T01:30:34.623Z,25.70
2023-05-09T01:33:06.441Z,24.35
2023-05-09T01:35:35.842Z,24.40
2023-05-09T01:38:06.287Z,23.63
2023-05-09T01:40:34.989Z,23.77
2023-05-09T01:43:07.062Z,23.38
2023-05-09T01:45:36.052Z,22.30
2023-05-09T01:48:04.268Z,23.17
2023-05-09T01:50:32.304Z,22.13
2023-05-09T01:53:01.020Z,22.30
2023-05-09T01:55:30.759Z,22.65
2023-05-09T01:57:59.444Z,21.83
2023-05-09T02:00:26.905Z,21.33
2023-05-09T02:02:55.101Z,22.67
2023-05-09T02:05:25.678Z,21.85
2023-05-09T02:07:54.492Z,22.40
2023-05-09T02:10:22.510Z,21.50
2023-05-09T02:12:49.246Z,21.65
2023-05-09T02:15:16.217Z,21.42
2023-05-09T02:17:43.270Z,21.83
2023-05-09T02:20:11.555Z,21.83
2023-05-09T02:22:39.956Z,21.58
2023-05-09T02:25:08.150Z,21.90
2023-05-09T02:27:35.538Z,20.30
2023-05-09T02:30:07.403Z,20.80
2023-05-09T02:32:36.031Z,20.48
2023-05-09T02:35:04.604Z,20.42
2023-05-09T02:37:31.684Z,20.80
2023-05-09T02:39:58.808Z,20.15
2023-05-09T02:42:28.730Z,20.08
2023-05-09T02:44:56.370Z,19.20
2023-05-09T02:47:23.112Z,19.90
2023-05-09T02:49:49.987Z,19.67
2023-05-09T02:52:16.958Z,20.55
2023-05-09T02:54:43.732Z,20.02
2023-05-09T02:57:10.585Z,22.27
2023-05-09T02:59:37.310Z,20.67
2023-05-09T03:02:04.012Z,21.45
2023-05-09T03:04:30.769Z,21.13
2023-05-09T03:06:57.540Z,22.23
2023-05-09T03:09:24.236Z,20.88
2023-05-09T03:11:51.081Z,20.92
2023-05-09T03:14:18.384Z,21.67
2023-05-09T03:16:45.095Z,22.80
2023-05-09T03:19:11.853Z,21.15
2023-05-09T03:21:38.613Z,21.90
2023-05-09T03:24:06.892Z,19.83
2023-05-09T03:26:35.720Z,20.65
2023-05-09T03:29:03.361Z,20.77
2023-05-09T03:31:30.324Z,20.92
2023-05-09T03:33:57.249Z,22.08
2023-05-09T03:36:26.323Z,20.58
2023-05-09T03:38:53.130Z,20.73
2023-05-09T03:41:21.625Z,20.23
2023-05-09T03:43:48.392Z,21.00
2023-05-09T03:46:15.248Z,20.98
2023-05-09T03:48:42.105Z,20.33
2023-05-09T03:51:08.849Z,20.60
2023-05-09T03:53:35.745Z,22.48
2023-05-09T03:56:02.748Z,21.67
2023-05-09T03:58:29.488Z,21.67
2023-05-09T04:00:56.279Z,22.35
2023-05-09T04:03:23.241Z,21.58
2023-05-09T04:05:50.153Z,22.02
2023-05-09T04:08:16.886Z,21.85
2023-05-09T04:10:43.659Z,21.70
2023-05-09T04:13:11.201Z,20.33
2023-05-09T04:15:38.008Z,21.42
2023-05-09T04:18:05.099Z,21.75
2023-05-09T04:20:31.876Z,22.15
2023-05-09T04:22:59.037Z,22.63
2023-05-09T04:25:26.029Z,23.73
2023-05-09T04:27:52.986Z,24.58
2023-05-09T04:30:20.916Z,24.83
2023-05-09T04:32:48.913Z,23.38
2023-05-09T04:35:17.389Z,24.92
2023-05-09T04:37:46.448Z,23.67
2023-05-09T04:40:13.510Z,23.58
2023-05-09T04:42:41.279Z,24.80
2023-05-09T04:45:09.394Z,24.25
2023-05-09T04:47:36.587Z,24.05
2023-05-09T04:50:03.582Z,24.15
2023-05-09T04:52:30.403Z,23.70
2023-05-09T04:54:57.134Z,23.65
2023-05-09T04:57:24.055Z,24.70
2023-05-09T04:59:50.855Z,24.20
2023-05-09T05:02:17.622Z,22.65
2023-05-09T05:04:44.522Z,23.45
2023-05-09T05:07:11.342Z,24.65
2023-05-09T05:09:38.075Z,24.17
2023-05-09T05:12:09.138Z,23.35
2023-05-09T05:17:03.257Z,22.30
2023-05-09T05:19:29.993Z,22.00
2023-05-09T05:21:56.713Z,20.92
2023-05-09T05:24:23.462Z,20.67
2023-05-09T05:26:50.308Z,21.30
2023-05-09T05:29:17.828Z,21.60
2023-05-09T05:31:44.662Z,21.52
2023-05-09T05:34:11.386Z,22.08
2023-05-09T05:36:38.148Z,21.40
2023-05-09T05:39:04.942Z,21.17
2023-05-09T05:41:31.720Z,22.40
2023-05-09T05:43:58.461Z,20.25
2023-05-09T05:46:25.201Z,21.42
2023-05-09T05:48:51.914Z,20.90
2023-05-09T05:51:18.693Z,20.05
2023-05-09T05:53:45.465Z,20.58
2023-05-09T05:56:12.192Z,19.98
2023-05-09T05:58:39.149Z,20.67
2023-05-09T06:01:05.869Z,20.70
2023-05-09T06:03:32.660Z,19.85
2023-05-09T06:05:59.626Z,21.45
2023-05-09T06:08:27.028Z,20.50
2023-05-09T06:10:54.047Z,21.42
2023-05-09T06:13:20.789Z,21.85
2023-05-09T06:15:47.598Z,21.17
2023-05-09T06:18:14.323Z,20.70
2023-05-09T06:20:41.097Z,21.42
2023-05-09T06:23:07.782Z,20.13
2023-05-09T06:25:34.512Z,17.98
2023-05-09T06:28:01.256Z,17.83
2023-05-09T06:30:28.092Z,16.95
2023-05-09T06:32:55.701Z,17.30
2023-05-09T06:35:22.641Z,16.23
2023-05-09T06:37:49.740Z,16.20
2023-05-09T06:40:17.323Z,16.38
2023-05-09T06:42:44.512Z,15.52
2023-05-09T06:45:11.668Z,15.75
2023-05-09T06:47:38.656Z,15.40
2023-05-09T06:50:06.008Z,15.48
2023-05-09T06:52:32.709Z,14.40
2023-05-09T06:54:59.468Z,14.30
2023-05-09T06:57:26.279Z,13.15
2023-05-09T06:59:53.119Z,13.00
2023-05-09T07:02:19.881Z,11.48
2023-05-09T07:04:46.713Z,12.60
2023-05-09T07:07:13.491Z,12.27
2023-05-09T07:09:40.231Z,11.90
2023-05-09T07:12:07.222Z,11.00
2023-05-09T07:14:33.975Z,10.82
2023-05-09T07:17:18.196Z,11.93
2023-05-09T07:19:47.484Z,12.05
2023-05-09T07:22:14.259Z,11.68
2023-05-09T07:24:41.077Z,11.55
2023-05-09T07:27:07.869Z,11.55
2023-05-09T07:29:34.618Z,11.15
2023-05-09T07:32:01.559Z,10.18
2023-05-09T07:34:28.336Z,10.38
2023-05-09T07:36:55.075Z,11.43
2023-05-09T07:39:22.047Z,10.95
2023-05-09T07:41:49.006Z,11.93
2023-05-09T07:44:15.891Z,12.93
2023-05-09T07:46:42.819Z,14.13
2023-05-09T07:49:09.647Z,14.18
2023-05-09T07:51:36.626Z,14.02
2023-05-09T07:54:03.511Z,13.65
2023-05-09T07:56:30.403Z,14.27
2023-05-09T07:58:57.097Z,15.18
2023-05-09T08:01:24.068Z,15.30
2023-05-09T08:03:50.872Z,15.13
2023-05-09T08:06:17.883Z,14.55
2023-05-09T08:08:44.672Z,14.85
2023-05-09T08:11:11.436Z,15.73
2023-05-09T08:13:38.262Z,16.20
2023-05-09T08:16:05.859Z,15.80
2023-05-09T08:18:32.779Z,15.48
2023-05-09T08:20:59.717Z,16.77
2023-05-09T08:23:26.866Z,16.10
2023-05-09T08:25:56.900Z,16.50
2023-05-09T08:28:24.522Z,15.68
2023-05-09T08:30:52.193Z,15.68
2023-05-09T08:33:19.167Z,15.55
2023-05-09T08:35:50.014Z,16.17
2023-05-09T08:38:16.755Z,16.23
2023-05-09T08:40:43.524Z,17.33
2023-05-09T08:43:11.818Z,18.13
2023-05-09T08:46:07.275Z,16.65
2023-05-09T08:48:38.335Z,16.65
2023-05-09T08:51:06.687Z,18.02
2023-05-09T08:53:34.262Z,18.33
2023-05-09T08:56:02.780Z,17.45
2023-05-09T08:58:31.114Z,18.30
2023-05-09T09:00:59.541Z,18.83
2023-05-09T09:03:26.959Z,18.20
2023-05-09T09:05:54.906Z,18.90
2023-05-09T09:08:22.921Z,19.33
2023-05-09T09:10:49.971Z,19.88
2023-05-09T09:13:18.042Z,19.77
2023-05-09T09:15:46.916Z,18.55
2023-05-09T09:18:20.852Z,17.80
2023-05-09T09:20:56.152Z,16.98
2023-05-09T09:23:25.508Z,18.95
2023-05-09T09:26:04.378Z,17.92
2023-05-09T09:28:31.180Z,17.13
2023-05-09T09:30:57.995Z,18.83
2023-05-09T09:33:28.836Z,18.33
2023-05-09T09:35:56.447Z,18.77
2023-05-09T09:38:24.674Z,18.33
2023-05-09T09:40:59.204Z,16.80
2023-05-09T09:43:32.808Z,16.27
2023-05-09T09:46:04.017Z,17.52
2023-05-09T09:48:35.462Z,16.55
2023-05-09T09:51:12.864Z,17.23
2023-05-09T09:53:41.442Z,17.63
2023-05-09T09:56:09.112Z,17.40
2023-05-09T09:58:36.254Z,17.48
2023-05-09T10:01:09.319Z,17.27
2023-05-09T10:03:45.255Z,18.17
2023-05-09T10:06:16.693Z,17.88
2023-05-09T10:08:49.022Z,17.58
2023-05-09T10:11:16.406Z,18.60
2023-05-09T10:13:44.467Z,18.85
2023-05-09T10:16:12.841Z,19.08
2023-05-09T10:18:42.438Z,16.90
2023-05-09T10:21:12.824Z,17.88
2023-05-09T10:23:45.975Z,16.92
2023-05-09T10:26:28.709Z,18.05
2023-05-09T10:28:58.337Z,16.58
2023-05-09T10:31:25.087Z,16.02
2023-05-09T10:33:52.218Z,16.35
2023-05-09T10:36:21.345Z,17.00
2023-05-09T10:38:49.157Z,16.35
2023-05-09T10:41:19.955Z,16.95
2023-05-09T10:43:47.262Z,14.43
2023-05-09T10:46:15.039Z,14.85
2023-05-09T10:48:43.111Z,14.38
2023-05-09T10:51:10.747Z,14.63
2023-05-09T10:53:49.732Z,14.43
2023-05-09T10:56:29.483Z,15.25
2023-05-09T10:58:57.425Z,13.45
2023-05-09T11:01:31.534Z,13.77
2023-05-09T11:04:00.161Z,13.95
2023-05-09T11:06:55.064Z,13.75
2023-05-09T11:09:38.780Z,13.98
2023-05-09T11:12:05.536Z,14.07
2023-05-09T11:14:33.837Z,12.43
2023-05-09T11:17:05.093Z,10.27
2023-05-09T11:19:47.142Z,9.10
2023-05-09T11:22:20.697Z,8.07
2023-05-09T11:24:49.205Z,7.10
2023-05-09T11:27:20.883Z,7.28
2023-05-09T11:29:52.087Z,6.15
2023-05-09T11:32:22.049Z,5.47
2023-05-09T11:34:49.699Z,6.00
2023-05-09T11:37:18.397Z,7.60
2023-05-09T11:40:04.772Z,7.70
2023-05-09T11:42:32.631Z,7.82
2023-05-09T11:44:59.712Z,8.10
2023-05-09T11:47:28.918Z,9.00
2023-05-09T11:49:56.011Z,7.13
2023-05-09T11:52:22.787Z,7.22
2023-05-09T11:54:50.191Z,6.28
2023-05-09T11:57:17.946Z,6.63
2023-05-09T11:59:45.601Z,7.47
2023-05-09T12:02:14.252Z,7.03
2023-05-09T12:04:41.313Z,7.50
2023-05-09T12:07:11.274Z,8.13
2023-05-09T12:09:38.280Z,8.48
2023-05-09T12:12:14.483Z,8.73
2023-05-09T12:14:42.007Z,8.23
2023-05-09T12:17:09.878Z,7.15
2023-05-09T12:19:36.953Z,6.18
2023-05-09T12:22:06.618Z,6.22
2023-05-09T12:24:36.689Z,5.50
2023-05-09T12:27:04.892Z,5.50
2023-05-09T12:29:31.811Z,5.07
2023-05-09T12:31:58.749Z,5.47
2023-05-09T12:34:25.539Z,5.00
2023-05-09T12:36:53.195Z,5.47
2023-05-09T12:39:24.550Z,6.03
2023-05-09T12:42:01.068Z,5.72
2023-05-09T12:44:29.645Z,6.10
2023-05-09T12:47:04.577Z,6.88
2023-05-09T12:49:32.454Z,6.40
2023-05-09T12:52:03.022Z,6.85
2023-05-09T12:54:31.411Z,7.65
2023-05-09T12:56:58.869Z,7.47
2023-05-09T12:59:30.252Z,7.07
2023-05-09T13:01:59.690Z,7.63
2023-05-09T13:04:28.334Z,7.78
2023-05-09T13:06:57.550Z,7.22
2023-05-09T13:09:25.633Z,6.60
2023-05-09T13:11:53.110Z,6.70
2023-05-09T13:14:23.494Z,6.30
2023-05-09T13:16:50.266Z,6.75
2023-05-09T13:19:17.100Z,6.70
2023-05-09T13:21:43.959Z,6.45
2023-05-09T13:24:10.812Z,6.80
2023-05-09T13:26:37.658Z,7.35
2023-05-09T13:29:04.482Z,6.93
2023-05-09T13:31:31.836Z,7.30
2023-05-09T13:33:58.623Z,8.55
2023-05-09T13:36:25.378Z,8.40
2023-05-09T13:38:52.169Z,8.13
2023-05-09T13:41:23.950Z,8.25
2023-05-09T13:43:50.912Z,8.38
2023-05-09T13:46:17.683Z,9.00
2023-05-09T13:48:44.707Z,8.73
2023-05-09T13:51:11.572Z,8.70
2023-05-09T13:53:39.362Z,9.15
2023-05-09T13:56:07.767Z,9.80
2023-05-09T13:58:34.652Z,9.15
2023-05-09T14:01:01.469Z,8.82
2023-05-09T14:03:28.339Z,9.15
2023-05-09T14:05:55.164Z,10.23
2023-05-09T14:08:22.265Z,9.48
2023-05-09T14:10:49.054Z,8.63
2023-05-09T14:13:16.191Z,7.90
2023-05-09T14:15:43.063Z,7.47
2023-05-09T14:18:09.927Z,6.75
2023-05-09T14:20:37.503Z,7.50
2023-05-09T14:23:04.354Z,7.75
2023-05-09T14:25:31.685Z,6.95
2023-05-09T14:27:59.409Z,7.05
2023-05-09T14:30:26.654Z,7.45
2023-05-09T14:32:53.485Z,8.07
2023-05-09T14:35:20.411Z,8.50
2023-05-09T14:37:47.191Z,8.55
2023-05-09T14:40:14.717Z,8.05
2023-05-09T14:42:42.237Z,8.25
2023-05-09T14:45:12.026Z,8.68
2023-05-09T14:47:39.075Z,8.55
2023-05-09T14:50:07.313Z,8.63
2023-05-09T14:52:34.145Z,8.52
2023-05-09T14:55:00.836Z,9.45
2023-05-09T14:57:28.302Z,9.13
2023-05-09T14:59:58.776Z,8.40
2023-05-09T15:02:25.900Z,8.73
2023-05-09T15:04:52.835Z,9.20
2023-05-09T15:07:19.562Z,9.88
2023-05-09T15:09:46.835Z,8.40
2023-05-09T15:12:13.552Z,8.73
2023-05-09T15:14:40.312Z,8.55
2023-05-09T15:17:07.168Z,7.85
2023-05-09T15:19:35.759Z,8.15
2023-05-09T15:22:04.672Z,8.45
2023-05-09T15:24:31.571Z,6.85
2023-05-09T15:26:58.253Z,5.97
2023-05-09T15:29:25.037Z,6.38
2023-05-09T15:31:51.957Z,5.63
2023-05-09T15:34:18.680Z,5.50
2023-05-09T15:36:45.418Z,4.47
2023-05-09T15:39:12.269Z,4.18
2023-05-09T15:41:38.966Z,2.88
2023-05-09T15:44:05.707Z,3.30
2023-05-09T15:46:33.220Z,2.65
2023-05-09T15:48:59.991Z,2.35
2023-05-09T15:51:29.322Z,2.72
2023-05-09T15:53:56.057Z,3.10
2023-05-09T15:56:22.849Z,2.85
2023-05-09T15:58:49.620Z,3.10
2023-05-09T16:01:16.462Z,3.30
2023-05-09T16:03:43.441Z,3.85
2023-05-09T16:06:10.502Z,4.10
2023-05-09T16:08:37.629Z,5.18
2023-05-09T16:11:05.170Z,5.97
2023-05-09T16:13:33.055Z,6.90
2023-05-09T16:16:02.310Z,7.63
2023-05-09T16:18:29.260Z,8.88
2023-05-09T16:20:56.060Z,9.30
2023-05-09T16:23:23.756Z,8.00
2023-05-09T16:25:50.482Z,8.27
2023-05-09T16:28:19.400Z,8.60
2023-05-09T16:30:46.308Z,7.97
2023-05-09T16:33:13.103Z,9.38
2023-05-09T16:35:40.072Z,6.60
2023-05-09T16:38:06.979Z,6.45
2023-05-09T16:40:34.080Z,6.80
2023-05-09T16:43:00.890Z,6.75
2023-05-09T16:45:27.637Z,6.55
2023-05-09T16:47:55.640Z,4.70
2023-05-09T16:50:22.806Z,3.25
2023-05-09T16:52:50.080Z,3.63
2023-05-09T16:55:16.995Z,3.40
2023-05-09T16:57:43.702Z,4.07
2023-05-09T17:00:11.022Z,3.58
2023-05-09T17:02:38.211Z,3.08
2023-05-09T17:05:05.336Z,3.80
2023-05-09T17:07:32.303Z,3.50
2023-05-09T17:09:59.216Z,3.83
2023-05-09T17:12:27.577Z,3.83
2023-05-09T17:14:54.372Z,3.97
2023-05-09T17:17:21.179Z,4.03
2023-05-09T17:19:48.444Z,3.47
2023-05-09T17:22:15.189Z,3.50
2023-05-09T17:24:42.167Z,3.15
2023-05-09T17:27:10.785Z,2.97
2023-05-09T17:29:37.619Z,3.00
2023-05-09T17:32:04.556Z,3.13
2023-05-09T17:34:32.272Z,3.20
2023-05-09T17:37:01.851Z,3.40
2023-05-09T17:39:28.654Z,3.58
2023-05-09T17:41:55.410Z,3.33
2023-05-09T17:44:22.119Z,3.08
2023-05-09T17:46:49.338Z,3.38
2023-05-09T17:49:16.828Z,3.30
2023-05-09T17:51:44.122Z,3.60
2023-05-09T17:54:11.652Z,3.60
2023-05-09T17:56:38.420Z,3.60
2023-05-09T17:59:05.228Z,3.63
2023-05-09T18:01:32.037Z,3.83
2023-05-09T18:03:59.001Z,4.60
2023-05-09T18:06:26.290Z,4.57
2023-05-09T18:08:53.050Z,4.32
2023-05-09T18:11:19.770Z,5.00
2023-05-09T18:13:47.435Z,5.05
2023-05-09T18:16:14.301Z,5.55
2023-05-09T18:18:41.043Z,5.45
2023-05-09T18:21:09.543Z,5.88
2023-05-09T18:23:36.359Z,5.70
2023-05-09T18:26:03.409Z,6.40
2023-05-09T18:28:30.581Z,6.80
2023-05-09T18:30:58.898Z,6.50
2023-05-09T18:33:27.119Z,7.47
2023-05-09T18:35:54.739Z,6.82
2023-05-09T18:38:22.578Z,8.05
2023-05-09T18:40:51.721Z,9.00
2023-05-09T18:43:20.670Z,7.93
2023-05-09T18:45:48.046Z,9.95
2023-05-09T18:48:17.762Z,10.05
2023-05-09T18:50:44.796Z,10.95
2023-05-09T18:53:11.666Z,12.15
2023-05-09T18:55:38.760Z,12.82
2023-05-09T18:58:05.874Z,11.82
2023-05-09T19:00:34.167Z,12.82
2023-05-09T19:03:01.081Z,13.40
2023-05-09T19:05:28.070Z,13.45
2023-05-09T19:07:54.849Z,12.23
2023-05-09T19:10:21.854Z,12.90
2023-05-09T19:12:49.304Z,13.25
2023-05-09T19:15:16.450Z,13.50
2023-05-09T19:17:43.590Z,14.55
2023-05-09T19:20:11.093Z,14.95
2023-05-09T19:22:39.089Z,14.95
2023-05-09T19:25:06.126Z,15.30
2023-05-09T19:27:32.938Z,16.50
2023-05-09T19:29:59.612Z,17.30
2023-05-09T19:32:26.459Z,19.02
2023-05-09T19:34:53.292Z,19.30
2023-05-09T19:37:20.022Z,19.40
2023-05-09T19:39:46.808Z,20.35
2023-05-09T19:42:13.570Z,20.75
2023-05-09T19:44:40.486Z,20.75
2023-05-09T19:47:08.999Z,21.58
2023-05-09T19:49:35.824Z,21.33
2023-05-09T19:52:03.240Z,21.55
2023-05-09T19:54:31.140Z,21.42
2023-05-09T19:56:57.916Z,21.58
2023-05-09T19:59:24.775Z,22.10
2023-05-09T20:01:51.565Z,22.92
2023-05-09T20:04:21.683Z,21.45
2023-05-09T20:06:48.538Z,22.45
2023-05-09T20:09:17.910Z,22.63
2023-05-09T20:11:44.706Z,23.13
2023-05-09T20:14:11.521Z,24.08
2023-05-09T20:16:38.438Z,24.92
2023-05-09T20:19:07.644Z,25.17
2023-05-09T20:21:34.864Z,26.10
2023-05-09T20:24:02.011Z,26.10
2023-05-09T20:26:29.665Z,26.42
2023-05-09T20:29:01.262Z,28.25
2023-05-09T20:33:55.687Z,28.20
2023-05-09T20:36:22.437Z,28.30
2023-05-09T20:38:49.398Z,27.88
2023-05-09T20:41:16.447Z,28.52
2023-05-09T20:43:44.257Z,27.38
2023-05-09T20:46:11.812Z,27.23
2023-05-09T20:48:38.684Z,29.48
2023-05-09T20:51:05.563Z,30.02
2023-05-09T20:53:34.791Z,28.70
2023-05-09T20:56:02.046Z,28.25
2023-05-09T20:58:32.559Z,29.52
2023-05-09T21:00:59.496Z,29.20
2023-05-09T21:03:26.635Z,30.02
2023-05-09T21:05:53.971Z,27.88
2023-05-09T21:08:20.848Z,28.25
2023-05-09T21:10:50.433Z,29.55
2023-05-09T21:13:17.268Z,29.02
2023-05-09T21:15:44.139Z,29.27
2023-05-09T21:18:10.996Z,30.45
2023-05-09T21:20:38.633Z,30.48
2023-05-09T21:23:05.517Z,30.15
2023-05-09T21:25:32.270Z,29.80
2023-05-09T21:27:59.045Z,28.27
2023-05-09T21:30:25.949Z,30.23
2023-05-09T21:32:52.852Z,28.85
2023-05-09T21:35:19.883Z,29.27
2023-05-09T21:37:46.729Z,27.73
2023-05-09T21:40:14.031Z,27.70
2023-05-09T21:42:43.836Z,26.42
2023-05-09T21:45:11.126Z,27.95
2023-05-09T21:47:39.717Z,27.63
2023-05-09T21:50:07.382Z,27.05
2023-05-09T21:52:34.261Z,26.58
2023-05-09T21:55:01.070Z,25.63
2023-05-09T21:57:27.860Z,26.17
2023-05-09T21:59:56.147Z,26.30
2023-05-09T22:02:22.917Z,25.85
2023-05-09T22:04:49.656Z,26.55
2023-05-09T22:07:16.392Z,25.42
2023-05-09T22:09:43.227Z,26.90
2023-05-09T22:12:10.027Z,26.45
2023-05-09T22:14:45.147Z,26.00
2023-05-09T22:17:15.580Z,25.50
2023-05-09T22:19:42.970Z,26.05
2023-05-09T22:22:09.809Z,26.23
2023-05-09T22:24:37.462Z,26.60
2023-05-09T22:27:04.268Z,25.67
2023-05-09T22:29:34.084Z,22.50
2023-05-09T22:32:04.630Z,22.38
2023-05-09T22:34:31.469Z,21.90
2023-05-09T22:36:58.169Z,24.35
2023-05-09T22:39:25.240Z,27.40
2023-05-09T22:41:52.023Z,25.85
2023-05-09T22:44:18.752Z,27.05
2023-05-09T22:46:45.689Z,26.13
2023-05-09T22:49:12.787Z,27.15
2023-05-09T22:51:39.606Z,27.02
2023-05-09T22:54:06.329Z,27.95
2023-05-09T22:56:33.201Z,26.65
2023-05-09T22:58:59.968Z,26.45
2023-05-09T23:01:27.513Z,26.17
2023-05-09T23:03:54.280Z,26.38
2023-05-09T23:06:20.989Z,28.42
2023-05-09T23:08:47.705Z,28.60
2023-05-09T23:11:14.405Z,28.10
2023-05-09T23:13:41.154Z,29.88
2023-05-09T23:16:07.992Z,29.40
2023-05-09T23:18:34.787Z,30.08
2023-05-09T23:21:01.562Z,32.75
2023-05-09T23:23:28.844Z,30.90
2023-05-09T23:25:55.531Z,31.27
2023-05-09T23:28:25.136Z,33.20
2023-05-09T23:30:53.720Z,32.03
2023-05-09T23:33:20.547Z,33.95
2023-05-09T23:35:48.181Z,34.72
2023-05-09T23:38:14.931Z,36.38
2023-05-09T23:40:45.512Z,34.10
2023-05-09T23:43:13.239Z,36.28
2023-05-09T23:45:40.187Z,37.22
2023-05-09T23:48:07.507Z,36.33
2023-05-09T23:50:34.378Z,39.33
2023-05-09T23:53:01.174Z,38.95
2023-05-09T23:55:27.872Z,40.53
2023-05-09T23:57:54.608Z,38.17
